Airfield :
LOGIN :

Register | Disclaimer

   EN    FR    IT 

 










Legend :    VFR   Marginal VFR   IFR   Intensive IFR   Very Intensive IFR
Visi :
Ceiling :
>= 8 km
>= 3000ft
5 to 8 km
1000 to 3000 ft
1500m to 5 km
500 to 1000 ft
800 to 1500m
200 to 500 ft
< 800m
< 200 ft
Symbols :   Thunderstorms  Fog  Heavy snow  Heavy precipitations  Wind > 20 kt
SIGMETs :     Misc.  Thunderstorms  Icing  Turbulence  Mountain Waves  Volcanic Ashes






- Airport Elevation : 325 ft
- IATA code : BES


LFRB - Brest

CURRENT METAR :
  • 250830Z AUTO 07003KT 350V140 CAVOK 18/11 Q1034 NOSIG

EXPIRED METARs :
  • 250800Z AUTO 04003KT 350V090 CAVOK 16/12 Q1034 NOSIG
  • 250730Z AUTO 05003KT 010V070 CAVOK 15/12 Q1034 NOSIG
  • 250700Z AUTO 03004KT CAVOK 13/11 Q1034 NOSIG
  • 250630Z AUTO 03004KT 9000 NSC 11/11 Q1034 NOSIG
  • 250600Z AUTO 02003KT 7000 R25/1200U NSC 10/10 Q1034 TEMPO 0500 FG VV///

TAF TAF LFRB
Valid from the 25 at 06:00 until the 26 at 12:00 UTC


250500Z 2506/2612 VRB05KT 3000 BR NSC
PROB30
TEMPO 2506/2507 0500 FG VV///
BECMG 2506/2508 CAVOK
BECMG 2514/2516 02010KT
PROB40
TEMPO 2602/2606 3000 BR
ATIS : +33 2 98 32 02 71



MET'MAP, your aeronautical weather chart ! - Copyright ORBIFLY December 2007 - Disclaimer

ORBIFLY MET'MAP TEAM :

Programming & Development : Alexandra Zaïnal
Concept & original design : Baudouin d'Aumeries
Assistance for programming : Marc-Olivier Méhu
Technical & hardware support : Manuel Goepfert

Contact : metmap@orbifly.com




SOURCES & CREDITS :

   NOAA